Aérodrome :
LOGIN :

S'inscrire | Disclaimer

   EN    FR    IT 

 










Légende :    VFR   VFR Marginal   IFR   IFR Intensif   IFR Très Intensif
Visi : 
Plafond : 
>= 8 km
>= 3000ft
5 à 8 km
1000 à 3000 ft
1500m à 5 km
500 à 1000 ft
800 à 1500m
200 à 500 ft
< 800m
< 200 ft
Symboles :   Orages  Brouillard  Fortes neiges  Fortes précipitations  Vent > 20 kt
SIGMETs :   Divers  Orages  Givrage  Turbulence  Onde Orograph.  Cendres Volcan.







- Altitude de l'aérodrome : 220 ft
- Code IATA : CWL
- Voir les cartes d'approche


EGFF - Cardiff Rhoose

DERNIER METAR :
  • 162050Z AUTO 13007KT 090V150 9999 BKN016 OVC025 10/08 Q1019

METARs EXPIRÉS :
  • 162020Z AUTO 14008KT 9999 BKN020 10/08 Q1019
  • 161950Z AUTO 16009KT 9999 BKN021 10/08 Q1019
  • 161920Z AUTO 16008KT 9999 OVC020 10/09 Q1019
  • 161850Z AUTO 16008KT 9999 OVC019 10/09 Q1019
  • 161820Z AUTO 17011KT 9999 BKN013 BKN019 OVC023 10/09 Q1019

TAF TAF EGFF
Valide du 16 à 18h jusqu'au 17 à 18h UTC


161653Z 1618/1718 18008KT 9999 OVC015
TEMPO 1618/1621 4000 -DZ BR BKN006
BECMG 1621/1624 12010KT 7000 BKN006
TEMPO 1621/1702 2000 -DZ BR BKN003
PROB30
TEMPO 1621/1703 1200 BKN001
BECMG 1700/1704 9999 FEW040
PROB30
TEMPO 1704/1707 8000
BECMG 1708/1711 18012KT
TEMPO 1710/1713 19015G25KT 8000 RA BKN012
PROB40
TEMPO 1711/1713 4500 RADZ BKN009
ATIS : +44 1446 729 319
Pas de NOTAMs connus pour ce terrain.



MET'MAP, la Météo Aéronautique d'un coup d'oeil ! - Copyright ORBIFLY Décembre 2007 - Disclaimer

ORBIFLY MET'MAP TEAM :

Programmation & Développement : Alexandra Zaïnal
Conception & Développement : Baudouin d'Aumeries
Co-Programmation & Développement : Marc-Olivier Méhu
Soutien technique & logistique : Manuel Goepfert

Contact : metmap@orbifly.com




SOURCES & CREDITS :

   NOAA